sensor_id;sensor_type;location;lat;lon;timestamp;temperature;humidity
21646;DHT22;10984;45.712;4.800;2023-11-21T00:02:10;8.40;99.90
21646;DHT22;10984;45.712;4.800;2023-11-21T00:04:35;8.40;99.90
21646;DHT22;10984;45.712;4.800;2023-11-21T00:07:01;8.40;99.90
21646;DHT22;10984;45.712;4.800;2023-11-21T00:09:27;8.50;99.90
21646;DHT22;10984;45.712;4.800;2023-11-21T00:11:52;8.50;99.90
21646;DHT22;10984;45.712;4.800;2023-11-21T00:14:18;8.50;99.90
21646;DHT22;10984;45.712;4.800;2023-11-21T00:16:44;8.50;99.90
21646;DHT22;10984;45.712;4.800;2023-11-21T00:19:09;8.50;99.90
21646;DHT22;10984;45.712;4.800;2023-11-21T00:21:35;8.50;99.90
21646;DHT22;10984;45.712;4.800;2023-11-21T00:24:00;8.50;99.90
21646;DHT22;10984;45.712;4.800;2023-11-21T00:26:26;8.60;99.90
21646;DHT22;10984;45.712;4.800;2023-11-21T00:28:52;8.50;99.90
21646;DHT22;10984;45.712;4.800;2023-11-21T00:31:17;8.50;99.90
21646;DHT22;10984;45.712;4.800;2023-11-21T00:33:43;8.60;99.90
21646;DHT22;10984;45.712;4.800;2023-11-21T00:36:09;8.60;99.90
21646;DHT22;10984;45.712;4.800;2023-11-21T00:38:35;8.60;99.90
21646;DHT22;10984;45.712;4.800;2023-11-21T00:41:01;8.70;99.90
21646;DHT22;10984;45.712;4.800;2023-11-21T00:43:28;8.70;99.90
21646;DHT22;10984;45.712;4.800;2023-11-21T00:45:54;8.60;99.90
21646;DHT22;10984;45.712;4.800;2023-11-21T00:48:19;8.60;99.90
21646;DHT22;10984;45.712;4.800;2023-11-21T00:50:45;8.70;99.90
21646;DHT22;10984;45.712;4.800;2023-11-21T00:53:10;8.70;99.90
21646;DHT22;10984;45.712;4.800;2023-11-21T00:55:37;8.70;99.90
21646;DHT22;10984;45.712;4.800;2023-11-21T00:58:05;8.70;99.90
21646;DHT22;10984;45.712;4.800;2023-11-21T01:00:33;8.70;99.90
21646;DHT22;10984;45.712;4.800;2023-11-21T01:02:58;8.80;99.90
21646;DHT22;10984;45.712;4.800;2023-11-21T01:05:24;8.80;99.90
21646;DHT22;10984;45.712;4.800;2023-11-21T01:07:50;8.80;99.90
21646;DHT22;10984;45.712;4.800;2023-11-21T01:10:15;8.90;99.90
21646;DHT22;10984;45.712;4.800;2023-11-21T01:12:42;8.90;99.90
21646;DHT22;10984;45.712;4.800;2023-11-21T01:15:08;9.00;99.90
21646;DHT22;10984;45.712;4.800;2023-11-21T01:17:34;9.10;99.90
21646;DHT22;10984;45.712;4.800;2023-11-21T01:20:01;9.10;99.90
21646;DHT22;10984;45.712;4.800;2023-11-21T01:22:28;9.10;99.90
21646;DHT22;10984;45.712;4.800;2023-11-21T01:24:54;9.20;99.90
21646;DHT22;10984;45.712;4.800;2023-11-21T01:27:20;9.20;99.90
21646;DHT22;10984;45.712;4.800;2023-11-21T01:29:46;9.20;99.90
21646;DHT22;10984;45.712;4.800;2023-11-21T01:32:11;9.10;99.90
21646;DHT22;10984;45.712;4.800;2023-11-21T01:34:38;9.20;99.90
21646;DHT22;10984;45.712;4.800;2023-11-21T01:37:03;9.20;99.90
21646;DHT22;10984;45.712;4.800;2023-11-21T01:39:31;9.20;99.90
21646;DHT22;10984;45.712;4.800;2023-11-21T01:41:57;9.20;99.90
21646;DHT22;10984;45.712;4.800;2023-11-21T01:44:24;9.20;99.90
21646;DHT22;10984;45.712;4.800;2023-11-21T01:46:50;9.10;99.90
21646;DHT22;10984;45.712;4.800;2023-11-21T01:49:17;9.20;99.90
21646;DHT22;10984;45.712;4.800;2023-11-21T01:51:46;9.20;99.90
21646;DHT22;10984;45.712;4.800;2023-11-21T01:54:13;9.30;99.90
21646;DHT22;10984;45.712;4.800;2023-11-21T01:56:38;9.30;99.90
21646;DHT22;10984;45.712;4.800;2023-11-21T01:59:05;9.30;99.90
21646;DHT22;10984;45.712;4.800;2023-11-21T02:01:33;9.20;99.90
21646;DHT22;10984;45.712;4.800;2023-11-21T02:03:59;9.30;99.90
21646;DHT22;10984;45.712;4.800;2023-11-21T02:06:24;9.30;99.90
21646;DHT22;10984;45.712;4.800;2023-11-21T02:08:51;9.40;99.90
21646;DHT22;10984;45.712;4.800;2023-11-21T02:11:17;9.40;99.90
21646;DHT22;10984;45.712;4.800;2023-11-21T02:13:44;9.40;99.90
21646;DHT22;10984;45.712;4.800;2023-11-21T02:16:11;9.40;99.90
21646;DHT22;10984;45.712;4.800;2023-11-21T02:18:40;9.50;99.90
21646;DHT22;10984;45.712;4.800;2023-11-21T02:21:08;9.50;99.90
21646;DHT22;10984;45.712;4.800;2023-11-21T02:23:35;9.50;99.90
21646;DHT22;10984;45.712;4.800;2023-11-21T02:26:01;9.50;99.90
21646;DHT22;10984;45.712;4.800;2023-11-21T02:28:30;9.50;99.90
21646;DHT22;10984;45.712;4.800;2023-11-21T02:30:55;9.50;99.90
21646;DHT22;10984;45.712;4.800;2023-11-21T02:33:23;9.50;99.90
21646;DHT22;10984;45.712;4.800;2023-11-21T02:35:49;9.60;99.90
21646;DHT22;10984;45.712;4.800;2023-11-21T02:38:14;9.60;99.90
21646;DHT22;10984;45.712;4.800;2023-11-21T02:40:41;9.60;99.90
21646;DHT22;10984;45.712;4.800;2023-11-21T02:43:07;9.60;99.90
21646;DHT22;10984;45.712;4.800;2023-11-21T02:45:33;9.60;99.90
21646;DHT22;10984;45.712;4.800;2023-11-21T02:47:58;9.60;99.90
21646;DHT22;10984;45.712;4.800;2023-11-21T02:50:24;9.60;99.90
21646;DHT22;10984;45.712;4.800;2023-11-21T02:52:50;9.60;99.90
21646;DHT22;10984;45.712;4.800;2023-11-21T02:55:16;9.60;99.90
21646;DHT22;10984;45.712;4.800;2023-11-21T02:57:42;9.60;99.90
21646;DHT22;10984;45.712;4.800;2023-11-21T03:00:08;9.60;99.90
21646;DHT22;10984;45.712;4.800;2023-11-21T03:02:35;9.60;99.90
21646;DHT22;10984;45.712;4.800;2023-11-21T03:05:19;9.60;99.90
21646;DHT22;10984;45.712;4.800;2023-11-21T03:07:45;9.50;99.90
21646;DHT22;10984;45.712;4.800;2023-11-21T03:10:11;9.60;99.90
21646;DHT22;10984;45.712;4.800;2023-11-21T03:12:37;9.60;99.90
21646;DHT22;10984;45.712;4.800;2023-11-21T03:15:05;9.50;99.90
21646;DHT22;10984;45.712;4.800;2023-11-21T03:17:31;9.40;99.90
21646;DHT22;10984;45.712;4.800;2023-11-21T03:19:57;9.50;99.90
21646;DHT22;10984;45.712;4.800;2023-11-21T03:22:22;9.50;99.90
21646;DHT22;10984;45.712;4.800;2023-11-21T03:24:48;9.40;99.90
21646;DHT22;10984;45.712;4.800;2023-11-21T03:27:14;9.40;99.90
21646;DHT22;10984;45.712;4.800;2023-11-21T03:29:40;9.40;99.90
21646;DHT22;10984;45.712;4.800;2023-11-21T03:32:05;9.40;99.90
21646;DHT22;10984;45.712;4.800;2023-11-21T03:34:32;9.40;99.90
21646;DHT22;10984;45.712;4.800;2023-11-21T03:36:58;9.50;99.90
21646;DHT22;10984;45.712;4.800;2023-11-21T03:39:24;9.50;99.90
21646;DHT22;10984;45.712;4.800;2023-11-21T03:41:51;9.50;99.90
21646;DHT22;10984;45.712;4.800;2023-11-21T03:44:17;9.50;99.90
21646;DHT22;10984;45.712;4.800;2023-11-21T03:46:43;9.40;99.90
21646;DHT22;10984;45.712;4.800;2023-11-21T03:49:09;9.40;99.90
21646;DHT22;10984;45.712;4.800;2023-11-21T03:51:36;9.40;99.90
21646;DHT22;10984;45.712;4.800;2023-11-21T03:54:02;9.40;99.90
21646;DHT22;10984;45.712;4.800;2023-11-21T03:56:28;9.40;99.90
21646;DHT22;10984;45.712;4.800;2023-11-21T03:58:54;9.40;99.90
21646;DHT22;10984;45.712;4.800;2023-11-21T04:01:38;9.40;99.90
21646;DHT22;10984;45.712;4.800;2023-11-21T04:04:04;9.40;99.90
21646;DHT22;10984;45.712;4.800;2023-11-21T04:06:30;9.40;99.90
21646;DHT22;10984;45.712;4.800;2023-11-21T04:08:58;9.40;99.90
21646;DHT22;10984;45.712;4.800;2023-11-21T04:11:24;9.40;99.90
21646;DHT22;10984;45.712;4.800;2023-11-21T04:13:50;9.40;99.90
21646;DHT22;10984;45.712;4.800;2023-11-21T04:16:15;9.40;99.90
21646;DHT22;10984;45.712;4.800;2023-11-21T04:18:41;9.40;99.90
21646;DHT22;10984;45.712;4.800;2023-11-21T04:21:08;9.40;99.90
21646;DHT22;10984;45.712;4.800;2023-11-21T04:23:34;9.40;99.90
21646;DHT22;10984;45.712;4.800;2023-11-21T04:26:00;9.40;99.90
21646;DHT22;10984;45.712;4.800;2023-11-21T04:28:27;9.40;99.90
21646;DHT22;10984;45.712;4.800;2023-11-21T04:30:53;9.40;99.90
21646;DHT22;10984;45.712;4.800;2023-11-21T04:33:19;9.40;99.90
21646;DHT22;10984;45.712;4.800;2023-11-21T04:35:44;9.40;99.90
21646;DHT22;10984;45.712;4.800;2023-11-21T04:38:10;9.40;99.90
21646;DHT22;10984;45.712;4.800;2023-11-21T04:40:36;9.40;99.90
21646;DHT22;10984;45.712;4.800;2023-11-21T04:43:01;9.40;99.90
21646;DHT22;10984;45.712;4.800;2023-11-21T04:45:27;9.40;99.90
21646;DHT22;10984;45.712;4.800;2023-11-21T04:47:52;9.40;99.90
21646;DHT22;10984;45.712;4.800;2023-11-21T04:50:18;9.40;99.90
21646;DHT22;10984;45.712;4.800;2023-11-21T04:52:44;9.30;99.90
21646;DHT22;10984;45.712;4.800;2023-11-21T04:55:10;9.40;99.90
21646;DHT22;10984;45.712;4.800;2023-11-21T04:57:36;9.40;99.90
21646;DHT22;10984;45.712;4.800;2023-11-21T05:00:03;9.40;99.90
21646;DHT22;10984;45.712;4.800;2023-11-21T05:02:32;9.40;99.90
21646;DHT22;10984;45.712;4.800;2023-11-21T05:05:00;9.30;99.90
21646;DHT22;10984;45.712;4.800;2023-11-21T05:07:25;9.40;99.90
21646;DHT22;10984;45.712;4.800;2023-11-21T05:09:54;9.40;99.90
21646;DHT22;10984;45.712;4.800;2023-11-21T05:12:21;9.40;99.90
21646;DHT22;10984;45.712;4.800;2023-11-21T05:14:49;9.40;99.90
21646;DHT22;10984;45.712;4.800;2023-11-21T05:17:14;9.40;99.90
21646;DHT22;10984;45.712;4.800;2023-11-21T05:19:40;9.40;99.90
21646;DHT22;10984;45.712;4.800;2023-11-21T05:22:06;9.40;99.90
21646;DHT22;10984;45.712;4.800;2023-11-21T05:24:33;9.40;99.90
21646;DHT22;10984;45.712;4.800;2023-11-21T05:26:59;9.40;99.90
21646;DHT22;10984;45.712;4.800;2023-11-21T05:29:25;9.40;99.90
21646;DHT22;10984;45.712;4.800;2023-11-21T05:31:51;9.40;99.90
21646;DHT22;10984;45.712;4.800;2023-11-21T05:34:17;9.40;99.90
21646;DHT22;10984;45.712;4.800;2023-11-21T05:37:01;9.40;99.90
21646;DHT22;10984;45.712;4.800;2023-11-21T05:39:27;9.40;99.90
21646;DHT22;10984;45.712;4.800;2023-11-21T05:41:53;9.40;99.90
21646;DHT22;10984;45.712;4.800;2023-11-21T05:44:19;9.40;99.90
21646;DHT22;10984;45.712;4.800;2023-11-21T05:46:44;9.50;99.90
21646;DHT22;10984;45.712;4.800;2023-11-21T05:49:10;9.50;99.90
21646;DHT22;10984;45.712;4.800;2023-11-21T05:51:37;9.50;99.90
21646;DHT22;10984;45.712;4.800;2023-11-21T05:54:04;9.50;99.90
21646;DHT22;10984;45.712;4.800;2023-11-21T05:56:29;9.50;99.90
21646;DHT22;10984;45.712;4.800;2023-11-21T05:58:55;9.50;99.90
21646;DHT22;10984;45.712;4.800;2023-11-21T06:01:20;9.50;99.90
21646;DHT22;10984;45.712;4.800;2023-11-21T06:03:46;9.50;99.90
21646;DHT22;10984;45.712;4.800;2023-11-21T06:06:12;9.50;99.90
21646;DHT22;10984;45.712;4.800;2023-11-21T06:08:37;9.60;99.90
21646;DHT22;10984;45.712;4.800;2023-11-21T06:11:03;9.60;99.90
21646;DHT22;10984;45.712;4.800;2023-11-21T06:13:29;9.60;99.90
21646;DHT22;10984;45.712;4.800;2023-11-21T06:15:54;9.60;99.90
21646;DHT22;10984;45.712;4.800;2023-11-21T06:18:20;9.50;99.90
21646;DHT22;10984;45.712;4.800;2023-11-21T06:20:46;9.60;99.90
21646;DHT22;10984;45.712;4.800;2023-11-21T06:23:12;9.60;99.90
21646;DHT22;10984;45.712;4.800;2023-11-21T06:25:37;9.50;99.90
21646;DHT22;10984;45.712;4.800;2023-11-21T06:28:03;9.50;99.90
21646;DHT22;10984;45.712;4.800;2023-11-21T06:30:29;9.50;99.90
21646;DHT22;10984;45.712;4.800;2023-11-21T06:32:55;9.50;99.90
21646;DHT22;10984;45.712;4.800;2023-11-21T06:35:21;9.50;99.90
21646;DHT22;10984;45.712;4.800;2023-11-21T06:37:47;9.60;99.90
21646;DHT22;10984;45.712;4.800;2023-11-21T06:40:13;9.60;99.90
21646;DHT22;10984;45.712;4.800;2023-11-21T06:42:58;9.60;99.90
21646;DHT22;10984;45.712;4.800;2023-11-21T06:45:24;9.60;99.90
21646;DHT22;10984;45.712;4.800;2023-11-21T06:47:49;9.60;99.90
21646;DHT22;10984;45.712;4.800;2023-11-21T06:50:15;9.50;99.90
21646;DHT22;10984;45.712;4.800;2023-11-21T06:52:41;9.50;99.90
21646;DHT22;10984;45.712;4.800;2023-11-21T06:55:07;9.60;99.90
21646;DHT22;10984;45.712;4.800;2023-11-21T06:57:51;9.60;99.90
21646;DHT22;10984;45.712;4.800;2023-11-21T07:00:17;9.60;99.90
21646;DHT22;10984;45.712;4.800;2023-11-21T07:02:44;9.60;99.90
21646;DHT22;10984;45.712;4.800;2023-11-21T07:05:10;9.60;99.90
21646;DHT22;10984;45.712;4.800;2023-11-21T07:07:36;9.60;99.90
21646;DHT22;10984;45.712;4.800;2023-11-21T07:10:03;9.60;99.90
21646;DHT22;10984;45.712;4.800;2023-11-21T07:12:30;9.60;99.90
21646;DHT22;10984;45.712;4.800;2023-11-21T07:14:57;9.70;99.90
21646;DHT22;10984;45.712;4.800;2023-11-21T07:17:22;9.70;99.90
21646;DHT22;10984;45.712;4.800;2023-11-21T07:19:49;9.70;99.90
21646;DHT22;10984;45.712;4.800;2023-11-21T07:22:15;9.70;99.90
21646;DHT22;10984;45.712;4.800;2023-11-21T07:24:48;9.70;99.90
21646;DHT22;10984;45.712;4.800;2023-11-21T07:27:15;9.70;99.90
21646;DHT22;10984;45.712;4.800;2023-11-21T07:29:41;9.70;99.90
21646;DHT22;10984;45.712;4.800;2023-11-21T07:32:06;9.70;99.90
21646;DHT22;10984;45.712;4.800;2023-11-21T07:34:34;9.70;99.90
21646;DHT22;10984;45.712;4.800;2023-11-21T07:37:00;9.70;99.90
21646;DHT22;10984;45.712;4.800;2023-11-21T07:39:26;9.80;99.90
21646;DHT22;10984;45.712;4.800;2023-11-21T07:41:52;9.80;99.90
21646;DHT22;10984;45.712;4.800;2023-11-21T07:44:17;9.80;99.90
21646;DHT22;10984;45.712;4.800;2023-11-21T07:46:43;9.80;99.90
21646;DHT22;10984;45.712;4.800;2023-11-21T07:49:09;9.80;99.90
21646;DHT22;10984;45.712;4.800;2023-11-21T07:51:35;9.90;99.90
21646;DHT22;10984;45.712;4.800;2023-11-21T07:54:01;9.90;99.90
21646;DHT22;10984;45.712;4.800;2023-11-21T07:56:26;9.90;99.90
21646;DHT22;10984;45.712;4.800;2023-11-21T07:58:52;10.00;99.90
21646;DHT22;10984;45.712;4.800;2023-11-21T08:01:19;10.00;99.90
21646;DHT22;10984;45.712;4.800;2023-11-21T08:03:44;10.00;99.90
21646;DHT22;10984;45.712;4.800;2023-11-21T08:06:10;10.10;99.90
21646;DHT22;10984;45.712;4.800;2023-11-21T08:08:35;10.10;99.90
21646;DHT22;10984;45.712;4.800;2023-11-21T08:11:01;10.20;99.90
21646;DHT22;10984;45.712;4.800;2023-11-21T08:13:29;10.20;99.90
21646;DHT22;10984;45.712;4.800;2023-11-21T08:16:14;10.20;99.90
21646;DHT22;10984;45.712;4.800;2023-11-21T08:18:39;10.20;99.90
21646;DHT22;10984;45.712;4.800;2023-11-21T08:21:06;10.20;99.90
21646;DHT22;10984;45.712;4.800;2023-11-21T08:23:34;10.20;99.90
21646;DHT22;10984;45.712;4.800;2023-11-21T08:26:00;10.30;99.90
21646;DHT22;10984;45.712;4.800;2023-11-21T08:28:28;10.30;99.90
21646;DHT22;10984;45.712;4.800;2023-11-21T08:30:54;10.40;99.90
21646;DHT22;10984;45.712;4.800;2023-11-21T08:33:19;10.40;99.90
21646;DHT22;10984;45.712;4.800;2023-11-21T08:35:45;10.40;99.90
21646;DHT22;10984;45.712;4.800;2023-11-21T08:38:11;10.40;99.90
21646;DHT22;10984;45.712;4.800;2023-11-21T08:40:37;10.40;99.90
21646;DHT22;10984;45.712;4.800;2023-11-21T08:43:03;10.40;99.90
21646;DHT22;10984;45.712;4.800;2023-11-21T08:45:30;10.50;99.90
21646;DHT22;10984;45.712;4.800;2023-11-21T08:47:56;10.50;99.90
21646;DHT22;10984;45.712;4.800;2023-11-21T08:50:21;10.60;99.90
21646;DHT22;10984;45.712;4.800;2023-11-21T08:52:47;10.70;99.90
21646;DHT22;10984;45.712;4.800;2023-11-21T08:55:13;10.80;99.90
21646;DHT22;10984;45.712;4.800;2023-11-21T08:57:40;10.70;99.90
21646;DHT22;10984;45.712;4.800;2023-11-21T09:00:07;10.70;99.90
21646;DHT22;10984;45.712;4.800;2023-11-21T09:02:37;10.60;99.90
21646;DHT22;10984;45.712;4.800;2023-11-21T09:05:04;10.60;99.90
21646;DHT22;10984;45.712;4.800;2023-11-21T09:07:30;10.70;99.90
21646;DHT22;10984;45.712;4.800;2023-11-21T09:09:56;10.60;99.90
21646;DHT22;10984;45.712;4.800;2023-11-21T09:12:21;10.60;99.90
21646;DHT22;10984;45.712;4.800;2023-11-21T09:14:47;10.70;99.90
21646;DHT22;10984;45.712;4.800;2023-11-21T09:17:13;10.70;99.90
21646;DHT22;10984;45.712;4.800;2023-11-21T09:19:40;10.70;99.90
21646;DHT22;10984;45.712;4.800;2023-11-21T09:22:06;10.70;99.90
21646;DHT22;10984;45.712;4.800;2023-11-21T09:24:33;10.80;99.90
21646;DHT22;10984;45.712;4.800;2023-11-21T09:26:59;10.70;99.90
21646;DHT22;10984;45.712;4.800;2023-11-21T09:29:28;10.70;99.90
21646;DHT22;10984;45.712;4.800;2023-11-21T09:31:54;10.50;99.90
21646;DHT22;10984;45.712;4.800;2023-11-21T09:34:21;10.50;99.90
21646;DHT22;10984;45.712;4.800;2023-11-21T09:36:47;10.50;99.90
21646;DHT22;10984;45.712;4.800;2023-11-21T09:39:14;10.60;99.90
21646;DHT22;10984;45.712;4.800;2023-11-21T09:45:05;10.70;99.90
21646;DHT22;10984;45.712;4.800;2023-11-21T09:47:38;10.80;99.90
21646;DHT22;10984;45.712;4.800;2023-11-21T09:50:05;10.90;99.90
21646;DHT22;10984;45.712;4.800;2023-11-21T09:52:45;10.90;99.90
21646;DHT22;10984;45.712;4.800;2023-11-21T09:55:16;10.90;99.90
21646;DHT22;10984;45.712;4.800;2023-11-21T09:57:44;10.90;99.90
21646;DHT22;10984;45.712;4.800;2023-11-21T10:00:11;10.90;99.90
21646;DHT22;10984;45.712;4.800;2023-11-21T10:02:38;10.90;99.90
21646;DHT22;10984;45.712;4.800;2023-11-21T10:05:06;10.90;99.90
21646;DHT22;10984;45.712;4.800;2023-11-21T10:07:34;10.90;99.90
21646;DHT22;10984;45.712;4.800;2023-11-21T10:10:00;10.80;99.90
21646;DHT22;10984;45.712;4.800;2023-11-21T10:12:28;10.80;99.90
21646;DHT22;10984;45.712;4.800;2023-11-21T10:14:58;10.80;99.90
21646;DHT22;10984;45.712;4.800;2023-11-21T10:17:26;10.90;99.90
21646;DHT22;10984;45.712;4.800;2023-11-21T10:19:57;11.00;99.90
21646;DHT22;10984;45.712;4.800;2023-11-21T10:22:23;11.00;99.90
21646;DHT22;10984;45.712;4.800;2023-11-21T10:24:49;11.00;99.90
21646;DHT22;10984;45.712;4.800;2023-11-21T10:27:15;11.00;99.90
21646;DHT22;10984;45.712;4.800;2023-11-21T10:29:40;11.10;99.90
21646;DHT22;10984;45.712;4.800;2023-11-21T10:32:07;11.20;99.90
21646;DHT22;10984;45.712;4.800;2023-11-21T10:34:34;11.20;99.90
21646;DHT22;10984;45.712;4.800;2023-11-21T10:37:11;11.40;99.90
21646;DHT22;10984;45.712;4.800;2023-11-21T10:39:37;11.60;99.90
21646;DHT22;10984;45.712;4.800;2023-11-21T10:42:04;11.70;99.90
21646;DHT22;10984;45.712;4.800;2023-11-21T10:44:29;11.60;99.90
21646;DHT22;10984;45.712;4.800;2023-11-21T10:46:55;11.60;99.90
21646;DHT22;10984;45.712;4.800;2023-11-21T10:49:24;11.50;99.90
21646;DHT22;10984;45.712;4.800;2023-11-21T10:51:50;11.40;99.90
21646;DHT22;10984;45.712;4.800;2023-11-21T10:54:19;11.40;99.90
21646;DHT22;10984;45.712;4.800;2023-11-21T10:56:47;11.40;99.90
21646;DHT22;10984;45.712;4.800;2023-11-21T10:59:13;11.30;99.90
21646;DHT22;10984;45.712;4.800;2023-11-21T11:01:43;11.30;99.90
21646;DHT22;10984;45.712;4.800;2023-11-21T11:04:11;11.20;99.90
21646;DHT22;10984;45.712;4.800;2023-11-21T11:06:46;11.20;99.90
21646;DHT22;10984;45.712;4.800;2023-11-21T11:09:17;11.00;99.90
21646;DHT22;10984;45.712;4.800;2023-11-21T11:11:43;11.00;99.90
21646;DHT22;10984;45.712;4.800;2023-11-21T11:14:13;10.90;99.90
21646;DHT22;10984;45.712;4.800;2023-11-21T11:16:40;10.90;99.90
21646;DHT22;10984;45.712;4.800;2023-11-21T11:19:07;11.00;99.90
21646;DHT22;10984;45.712;4.800;2023-11-21T11:21:56;11.10;99.90
21646;DHT22;10984;45.712;4.800;2023-11-21T11:24:49;11.10;99.90
21646;DHT22;10984;45.712;4.800;2023-11-21T11:27:44;11.10;99.90
21646;DHT22;10984;45.712;4.800;2023-11-21T11:30:39;11.10;99.90
21646;DHT22;10984;45.712;4.800;2023-11-21T11:36:29;11.20;99.90
21646;DHT22;10984;45.712;4.800;2023-11-21T11:38:57;11.10;99.90
21646;DHT22;10984;45.712;4.800;2023-11-21T11:41:42;11.10;99.90
21646;DHT22;10984;45.712;4.800;2023-11-21T11:50:23;11.30;99.90
21646;DHT22;10984;45.712;4.800;2023-11-21T11:52:53;11.40;99.90
21646;DHT22;10984;45.712;4.800;2023-11-21T11:55:38;11.50;99.90
21646;DHT22;10984;45.712;4.800;2023-11-21T11:58:06;11.70;99.90
21646;DHT22;10984;45.712;4.800;2023-11-21T12:03:00;11.70;99.90
21646;DHT22;10984;45.712;4.800;2023-11-21T12:05:30;11.80;99.90
21646;DHT22;10984;45.712;4.800;2023-11-21T12:08:00;11.90;94.40
21646;DHT22;10984;45.712;4.800;2023-11-21T12:10:31;11.90;54.60
21646;DHT22;10984;45.712;4.800;2023-11-21T12:12:59;11.80;51.10
21646;DHT22;10984;45.712;4.800;2023-11-21T12:15:25;11.80;79.00
21646;DHT22;10984;45.712;4.800;2023-11-21T12:17:52;11.80;48.80
21646;DHT22;10984;45.712;4.800;2023-11-21T12:20:36;11.80;39.90
21646;DHT22;10984;45.712;4.800;2023-11-21T12:23:05;11.70;33.80
21646;DHT22;10984;45.712;4.800;2023-11-21T12:25:31;11.70;45.40
21646;DHT22;10984;45.712;4.800;2023-11-21T12:27:59;11.70;60.50
21646;DHT22;10984;45.712;4.800;2023-11-21T12:30:29;11.70;24.20
21646;DHT22;10984;45.712;4.800;2023-11-21T12:32:57;11.80;50.70
21646;DHT22;10984;45.712;4.800;2023-11-21T12:35:42;11.80;33.50
21646;DHT22;10984;45.712;4.800;2023-11-21T12:38:09;11.80;50.20
21646;DHT22;10984;45.712;4.800;2023-11-21T12:40:35;11.90;22.90
21646;DHT22;10984;45.712;4.800;2023-11-21T12:43:01;11.80;41.50
21646;DHT22;10984;45.712;4.800;2023-11-21T12:45:29;11.80;74.60
21646;DHT22;10984;45.712;4.800;2023-11-21T12:48:14;11.70;53.70
21646;DHT22;10984;45.712;4.800;2023-11-21T12:50:42;11.80;60.20
21646;DHT22;10984;45.712;4.800;2023-11-21T12:53:10;11.70;65.50
21646;DHT22;10984;45.712;4.800;2023-11-21T12:55:55;11.70;58.10
21646;DHT22;10984;45.712;4.800;2023-11-21T12:58:23;11.60;91.60
21646;DHT22;10984;45.712;4.800;2023-11-21T13:00:50;11.60;93.70
21646;DHT22;10984;45.712;4.800;2023-11-21T13:03:19;11.70;99.90
21646;DHT22;10984;45.712;4.800;2023-11-21T13:05:50;11.60;99.90
21646;DHT22;10984;45.712;4.800;2023-11-21T13:08:17;11.60;99.90
21646;DHT22;10984;45.712;4.800;2023-11-21T13:10:49;11.50;99.90
21646;DHT22;10984;45.712;4.800;2023-11-21T13:13:15;11.50;99.90
21646;DHT22;10984;45.712;4.800;2023-11-21T13:16:00;11.50;99.90
21646;DHT22;10984;45.712;4.800;2023-11-21T13:18:28;11.50;99.90
21646;DHT22;10984;45.712;4.800;2023-11-21T13:21:12;11.50;99.90
21646;DHT22;10984;45.712;4.800;2023-11-21T13:23:40;11.50;99.90
21646;DHT22;10984;45.712;4.800;2023-11-21T13:26:07;11.40;99.90
21646;DHT22;10984;45.712;4.800;2023-11-21T13:28:34;11.30;99.90
21646;DHT22;10984;45.712;4.800;2023-11-21T13:31:01;11.20;99.90
21646;DHT22;10984;45.712;4.800;2023-11-21T13:33:45;11.10;99.90
21646;DHT22;10984;45.712;4.800;2023-11-21T13:36:16;11.00;99.90
21646;DHT22;10984;45.712;4.800;2023-11-21T13:38:48;11.00;99.90
21646;DHT22;10984;45.712;4.800;2023-11-21T13:41:14;11.10;99.90
21646;DHT22;10984;45.712;4.800;2023-11-21T13:43:40;11.10;99.90
21646;DHT22;10984;45.712;4.800;2023-11-21T13:46:09;11.10;99.90
21646;DHT22;10984;45.712;4.800;2023-11-21T13:48:53;11.10;99.90
21646;DHT22;10984;45.712;4.800;2023-11-21T13:51:22;11.20;99.90
21646;DHT22;10984;45.712;4.800;2023-11-21T13:53:56;11.20;99.90
21646;DHT22;10984;45.712;4.800;2023-11-21T13:56:21;11.20;99.90
21646;DHT22;10984;45.712;4.800;2023-11-21T13:59:06;11.20;99.90
21646;DHT22;10984;45.712;4.800;2023-11-21T14:01:42;11.20;99.90
21646;DHT22;10984;45.712;4.800;2023-11-21T14:04:26;11.20;99.90
21646;DHT22;10984;45.712;4.800;2023-11-21T14:07:11;11.20;99.90
21646;DHT22;10984;45.712;4.800;2023-11-21T14:09:48;11.20;99.90
21646;DHT22;10984;45.712;4.800;2023-11-21T14:12:15;11.20;99.90
21646;DHT22;10984;45.712;4.800;2023-11-21T14:14:41;11.20;99.90
21646;DHT22;10984;45.712;4.800;2023-11-21T14:17:07;11.20;99.90
21646;DHT22;10984;45.712;4.800;2023-11-21T14:19:33;11.20;99.90
21646;DHT22;10984;45.712;4.800;2023-11-21T14:21:59;11.20;99.90
21646;DHT22;10984;45.712;4.800;2023-11-21T14:24:25;11.00;99.90
21646;DHT22;10984;45.712;4.800;2023-11-21T14:26:51;10.90;99.90
21646;DHT22;10984;45.712;4.800;2023-11-21T14:29:17;10.70;99.90
21646;DHT22;10984;45.712;4.800;2023-11-21T14:31:45;10.50;99.90
21646;DHT22;10984;45.712;4.800;2023-11-21T14:34:11;10.50;99.90
21646;DHT22;10984;45.712;4.800;2023-11-21T14:36:39;10.50;99.90
21646;DHT22;10984;45.712;4.800;2023-11-21T14:39:05;10.40;99.90
21646;DHT22;10984;45.712;4.800;2023-11-21T14:41:50;10.40;99.90
21646;DHT22;10984;45.712;4.800;2023-11-21T14:44:16;10.40;99.90
21646;DHT22;10984;45.712;4.800;2023-11-21T14:46:42;10.40;99.90
21646;DHT22;10984;45.712;4.800;2023-11-21T14:49:26;10.40;99.90
21646;DHT22;10984;45.712;4.800;2023-11-21T14:51:56;10.40;99.90
21646;DHT22;10984;45.712;4.800;2023-11-21T14:54:40;10.50;99.90
21646;DHT22;10984;45.712;4.800;2023-11-21T14:57:08;10.40;99.90
21646;DHT22;10984;45.712;4.800;2023-11-21T14:59:52;10.50;99.90
21646;DHT22;10984;45.712;4.800;2023-11-21T15:02:23;10.40;99.90
21646;DHT22;10984;45.712;4.800;2023-11-21T15:05:09;10.40;99.90
21646;DHT22;10984;45.712;4.800;2023-11-21T15:07:40;10.30;99.90
21646;DHT22;10984;45.712;4.800;2023-11-21T15:10:06;10.30;99.90
21646;DHT22;10984;45.712;4.800;2023-11-21T15:12:36;10.30;99.90
21646;DHT22;10984;45.712;4.800;2023-11-21T15:15:04;10.30;99.90
21646;DHT22;10984;45.712;4.800;2023-11-21T15:17:33;10.30;99.90
21646;DHT22;10984;45.712;4.800;2023-11-21T15:19:59;10.30;99.90
21646;DHT22;10984;45.712;4.800;2023-11-21T15:22:25;10.40;99.90
21646;DHT22;10984;45.712;4.800;2023-11-21T15:24:53;10.30;99.90
21646;DHT22;10984;45.712;4.800;2023-11-21T15:27:19;10.30;99.90
21646;DHT22;10984;45.712;4.800;2023-11-21T15:29:45;10.30;99.90
21646;DHT22;10984;45.712;4.800;2023-11-21T15:32:11;10.40;99.90
21646;DHT22;10984;45.712;4.800;2023-11-21T15:34:38;10.30;99.90
21646;DHT22;10984;45.712;4.800;2023-11-21T15:37:07;10.30;99.90
21646;DHT22;10984;45.712;4.800;2023-11-21T15:39:36;10.20;99.90
21646;DHT22;10984;45.712;4.800;2023-11-21T15:42:01;10.00;99.90
21646;DHT22;10984;45.712;4.800;2023-11-21T15:44:29;10.00;99.90
21646;DHT22;10984;45.712;4.800;2023-11-21T15:46:57;10.00;99.90
21646;DHT22;10984;45.712;4.800;2023-11-21T15:49:23;9.90;99.90
21646;DHT22;10984;45.712;4.800;2023-11-21T15:51:49;9.80;99.90
21646;DHT22;10984;45.712;4.800;2023-11-21T15:54:33;9.80;99.90
21646;DHT22;10984;45.712;4.800;2023-11-21T15:57:00;9.80;99.90
21646;DHT22;10984;45.712;4.800;2023-11-21T15:59:26;9.70;99.90
21646;DHT22;10984;45.712;4.800;2023-11-21T16:01:57;9.70;99.90